Time;durP1;ratioP1;P1;durP2;ratioP2;P2;SDS_P1;SDS_P2;PMS_P1;PMS_P2;Temp;Humidity;BMP_temperature;BMP_pressure;BME280_temperature;BME280_humidity;BME280_pressure;Samples;Min_cycle;Max_cycle;Signal;HPM_P1;HPM_P2
2022/03/18 00:02:22;;;;;;;18.98;16.95;;;;;;;5.40;100.00;97366.41;5122337;27;24829;-73
2022/03/18 00:04:48;;;;;;;18.88;16.98;;;;;;;5.50;100.00;97365.38;5113662;27;24433;-73
2022/03/18 00:07:16;;;;;;;18.63;16.77;;;;;;;5.40;100.00;97371.56;5113986;27;24437;-73
2022/03/18 00:09:43;;;;;;;19.55;17.50;;;;;;;5.48;100.00;97362.81;5129271;27;25054;-73
2022/03/18 00:12:10;;;;;;;21.25;18.95;;;;;;;5.60;100.00;97364.38;5113778;27;24478;-73
2022/03/18 00:14:39;;;;;;;21.17;19.13;;;;;;;5.74;100.00;97367.50;5117609;27;24974;-73
2022/03/18 00:17:06;;;;;;;23.48;19.65;;;;;;;5.56;100.00;97371.28;5130223;27;24437;-73
2022/03/18 00:19:33;;;;;;;21.40;19.15;;;;;;;5.58;100.00;97366.94;5132910;27;24552;-73
2022/03/18 00:22:01;;;;;;;25.40;21.10;;;;;;;5.51;100.00;97373.06;5127080;27;24569;-73
2022/03/18 00:24:31;;;;;;;20.87;18.87;;;;;;;5.42;100.00;97375.81;5127929;27;24559;-74
2022/03/18 00:26:58;;;;;;;24.55;20.40;;;;;;;5.62;100.00;97369.47;5133973;27;24528;-73
2022/03/18 00:29:25;;;;;;;22.27;20.17;;;;;;;5.45;100.00;97378.31;5132651;27;24437;-73
2022/03/18 00:31:51;;;;;;;22.17;20.08;;;;;;;5.48;100.00;97370.53;5133107;27;24836;-73
2022/03/18 00:34:18;;;;;;;25.73;20.95;;;;;;;5.40;100.00;97374.13;5133613;27;24536;-73
2022/03/18 00:36:45;;;;;;;23.75;21.35;;;;;;;5.51;100.00;97375.63;5127033;27;24482;-73
2022/03/18 00:39:11;;;;;;;24.75;20.27;;;;;;;5.49;100.00;97382.53;5117884;27;24445;-73
2022/03/18 00:41:40;;;;;;;23.23;20.50;;;;;;;5.39;100.00;97386.13;5114043;27;24448;-73
2022/03/18 00:44:06;;;;;;;23.52;20.95;;;;;;;5.40;100.00;97385.25;5114050;27;24507;-73
2022/03/18 00:46:33;;;;;;;23.55;19.60;;;;;;;5.31;100.00;97375.97;5116108;27;24436;-73
2022/03/18 00:54:28;;;;;;;22.63;20.40;;;;;;;5.26;100.00;97372.63;5122134;27;24479;-73
2022/03/18 00:56:55;;;;;;;21.27;19.08;;;;;;;5.28;100.00;97376.03;5112601;27;24465;-73
2022/03/18 00:59:22;;;;;;;22.63;20.25;;;;;;;5.27;100.00;97374.34;5125066;27;24455;-73
2022/03/18 01:01:52;;;;;;;22.67;20.27;;;;;;;5.31;100.00;97367.44;5117370;27;24444;-73
2022/03/18 01:04:18;;;;;;;23.17;20.52;;;;;;;5.59;100.00;97376.34;5133043;27;24456;-73
2022/03/18 01:06:45;;;;;;;23.02;20.20;;;;;;;5.37;100.00;97374.16;5115640;27;24433;-73
2022/03/18 01:09:11;;;;;;;23.58;20.55;;;;;;;5.46;100.00;97371.47;5130636;27;24440;-73
2022/03/18 01:11:37;;;;;;;23.08;20.67;;;;;;;5.34;100.00;97380.22;5123044;27;24442;-73
2022/03/18 01:14:05;;;;;;;21.73;19.48;;;;;;;5.37;100.00;97374.16;5112441;28;24425;-73
2022/03/18 01:16:32;;;;;;;22.52;20.15;;;;;;;5.36;100.00;97375.91;5112400;28;24417;-73
2022/03/18 01:18:58;;;;;;;21.77;19.23;;;;;;;5.40;100.00;97379.25;5118926;27;24486;-73
2022/03/18 01:21:25;;;;;;;21.58;19.27;;;;;;;5.48;100.00;97378.25;5131811;27;24433;-73
2022/03/18 01:23:51;;;;;;;22.77;20.50;;;;;;;5.36;100.00;97383.59;5131808;27;24449;-73
2022/03/18 01:26:18;;;;;;;21.50;19.20;;;;;;;5.38;100.00;97379.31;5132136;27;24440;-73
2022/03/18 01:28:44;;;;;;;20.30;18.30;;;;;;;5.35;100.00;97381.91;5120412;27;24487;-73
2022/03/18 01:31:12;;;;;;;21.35;19.13;;;;;;;5.29;100.00;97375.13;5126373;27;24440;-73
2022/03/18 01:33:39;;;;;;;21.95;19.60;;;;;;;5.40;100.00;97377.53;5115825;27;24791;-73
2022/03/18 01:36:06;;;;;;;21.88;19.65;;;;;;;5.33;100.00;97373.38;5131079;27;25007;-73
2022/03/18 01:38:32;;;;;;;20.95;18.73;;;;;;;5.38;100.00;97378.41;5131846;27;24433;-73
2022/03/18 01:40:59;;;;;;;24.88;18.75;;;;;;;5.30;100.00;97370.84;5132150;27;24433;-73
2022/03/18 01:43:25;;;;;;;19.95;17.90;;;;;;;5.25;100.00;97373.50;5115753;27;24462;-73
2022/03/18 01:45:52;;;;;;;20.33;18.40;;;;;;;5.41;100.00;97373.25;5123985;27;24966;-73
2022/03/18 01:48:19;;;;;;;20.13;17.98;;;;;;;5.37;100.00;97374.16;5118086;27;25008;-73
2022/03/18 01:50:46;;;;;;;20.58;17.75;;;;;;;5.39;100.00;97382.72;5131865;27;24798;-73
2022/03/18 01:53:13;;;;;;;20.88;17.65;;;;;;;5.39;100.00;97381.00;5127506;27;24429;-73
2022/03/18 01:55:39;;;;;;;19.95;17.98;;;;;;;5.22;100.00;97382.97;5129403;27;24441;-73
2022/03/18 01:58:06;;;;;;;21.58;18.80;;;;;;;5.20;100.00;97384.72;5116973;27;24429;-73
2022/03/18 02:00:32;;;;;;;20.48;18.20;;;;;;;5.20;100.00;97384.72;5122036;27;24476;-73
2022/03/18 02:02:59;;;;;;;20.42;17.88;;;;;;;5.26;100.00;97384.63;5104902;27;24819;-73
2022/03/18 02:05:27;;;;;;;21.83;18.08;;;;;;;5.39;100.00;97381.00;5111731;28;24783;-73
2022/03/18 02:07:53;;;;;;;20.30;18.20;;;;;;;5.29;100.00;97379.44;5131378;27;24433;-73
2022/03/18 02:10:20;;;;;;;20.60;18.63;;;;;;;5.28;100.00;97388.88;5131332;27;24441;-73
2022/03/18 02:12:48;;;;;;;20.80;18.60;;;;;;;5.29;100.00;97390.56;5121089;27;24795;-73
2022/03/18 02:15:14;;;;;;;21.77;18.77;;;;;;;5.27;100.00;97388.91;5115135;27;24529;-75
2022/03/18 02:17:41;;;;;;;22.67;18.77;;;;;;;5.32;100.00;97395.66;5128810;27;24493;-73
2022/03/18 02:20:08;;;;;;;20.95;18.00;;;;;;;5.20;100.00;97392.44;5126829;27;24437;-73
2022/03/18 02:22:38;;;;;;;19.60;17.55;;;;;;;5.18;100.00;97389.88;5128056;27;24425;-73
2022/03/18 02:25:09;;;;;;;20.40;18.17;;;;;;;5.27;100.00;97394.88;5130040;27;24543;-73
2022/03/18 02:27:36;;;;;;;23.45;16.90;;;;;;;5.23;100.00;97397.53;5115180;27;24448;-73
2022/03/18 02:30:04;;;;;;;19.00;17.00;;;;;;;5.28;100.00;97398.28;5131089;27;24529;-73
2022/03/18 02:32:32;;;;;;;18.77;16.88;;;;;;;5.06;100.00;97393.47;5115457;27;24437;-73
2022/03/18 02:34:58;;;;;;;19.77;17.73;;;;;;;5.16;100.00;97393.34;5111208;28;24461;-73
2022/03/18 02:37:25;;;;;;;19.15;17.10;;;;;;;5.12;100.00;97392.56;5115220;28;24449;-73
2022/03/18 02:39:52;;;;;;;19.30;17.23;;;;;;;5.13;100.00;97399.38;5129692;27;24448;-73
2022/03/18 02:42:19;;;;;;;23.10;17.75;;;;;;;5.14;100.00;97400.22;5129794;27;24852;-73
2022/03/18 02:44:46;;;;;;;18.65;16.67;;;;;;;4.97;100.00;97397.91;5130290;28;24552;-73
2022/03/18 02:47:12;;;;;;;20.85;18.10;;;;;;;5.00;100.00;97401.25;5127476;27;24437;-73
2022/03/18 02:49:38;;;;;;;19.13;17.10;;;;;;;5.19;100.00;97404.44;5111206;28;24437;-73
2022/03/18 02:52:05;;;;;;;18.80;16.85;;;;;;;5.12;100.00;97401.97;5130293;28;24441;-73
2022/03/18 02:54:35;;;;;;;19.33;17.08;;;;;;;5.43;100.00;97404.91;5128867;28;24455;-73
2022/03/18 02:57:02;;;;;;;18.50;16.50;;;;;;;5.19;100.00;97398.41;5121290;28;24444;-73
2022/03/18 02:59:29;;;;;;;17.52;15.93;;;;;;;5.09;100.00;97410.56;5122565;28;24434;-73
2022/03/18 03:01:57;;;;;;;17.98;16.10;;;;;;;5.12;100.00;97407.09;5122871;28;24437;-73
2022/03/18 03:04:24;;;;;;;18.13;16.33;;;;;;;5.10;100.00;97409.69;5115202;28;24449;-73
2022/03/18 03:09:34;;;;;;;17.03;15.27;;;;;;;4.98;100.00;97422.72;5110583;28;25045;-73
2022/03/18 03:12:01;;;;;;;18.63;16.63;;;;;;;5.24;100.00;97419.78;5127856;28;24440;-73
2022/03/18 03:14:29;;;;;;;18.05;16.23;;;;;;;5.17;100.00;97416.44;5119009;28;24456;-73
2022/03/18 03:16:55;;;;;;;48.33;40.93;;;;;;;5.01;100.00;97425.25;5113240;28;24481;-73
2022/03/18 03:19:22;;;;;;;24.17;21.47;;;;;;;4.95;100.00;97431.31;5123802;28;24437;-74
2022/03/18 03:21:49;;;;;;;21.00;16.63;;;;;;;4.99;100.00;97430.38;5111815;28;24438;-73
2022/03/18 03:24:15;;;;;;;20.25;16.90;;;;;;;4.99;100.00;97432.13;5117269;28;25022;-73
2022/03/18 03:26:42;;;;;;;20.42;16.52;;;;;;;4.98;100.00;97431.28;5111530;28;24997;-73
2022/03/18 03:29:08;;;;;;;17.70;15.73;;;;;;;4.99;100.00;97434.69;5111476;28;25193;-73
2022/03/18 03:31:36;;;;;;;17.55;15.65;;;;;;;5.14;100.00;97436.19;5130925;28;24445;-73
2022/03/18 03:34:03;;;;;;;17.70;15.95;;;;;;;5.10;100.00;97443.94;5122440;28;24830;-73
2022/03/18 03:36:30;;;;;;;19.35;16.35;;;;;;;4.93;100.00;97445.91;5110664;28;24826;-73
2022/03/18 03:38:57;;;;;;;18.05;16.15;;;;;;;4.88;100.00;97445.09;5118651;28;24440;-73
2022/03/18 03:41:23;;;;;;;17.80;15.82;;;;;;;4.93;100.00;97448.47;5118209;28;24809;-73
2022/03/18 03:43:50;;;;;;;16.50;14.90;;;;;;;4.84;100.00;97440.88;5130427;28;24540;-73
2022/03/18 03:46:16;;;;;;;17.15;15.48;;;;;;;4.88;100.00;97446.81;5123035;28;24440;-73
2022/03/18 03:48:44;;;;;;;16.92;15.30;;;;;;;4.95;100.00;97445.88;5121609;28;24448;-73
2022/03/18 03:51:11;;;;;;;16.30;14.60;;;;;;;5.02;100.00;97448.31;5127870;28;24445;-73
2022/03/18 03:53:37;;;;;;;20.48;15.25;;;;;;;4.98;100.00;97444.09;5126653;28;24441;-73
2022/03/18 03:56:04;;;;;;;20.02;15.65;;;;;;;5.21;100.00;97448.06;5123793;28;24441;-73
2022/03/18 03:58:31;;;;;;;17.40;15.52;;;;;;;5.12;100.00;97448.19;5119841;27;24828;-73
2022/03/18 04:00:57;;;;;;;17.77;15.55;;;;;;;5.04;100.00;97450.88;5120348;27;24437;-73
2022/03/18 04:03:23;;;;;;;16.67;15.05;;;;;;;4.94;100.00;97457.88;5121187;27;24993;-73
2022/03/18 04:05:51;;;;;;;17.50;15.73;;;;;;;5.03;100.00;97467.16;5133548;27;24844;-73
2022/03/18 04:08:18;;;;;;;19.00;15.57;;;;;;;5.08;100.00;97463.66;5129445;27;25086;-73
2022/03/18 04:10:44;;;;;;;17.80;15.67;;;;;;;5.16;100.00;97460.97;5133424;27;24437;-73
2022/03/18 04:13:11;;;;;;;16.87;15.13;;;;;;;5.12;100.00;97467.03;5133880;27;24440;-73
2022/03/18 04:15:38;;;;;;;17.38;15.57;;;;;;;5.09;100.00;97469.63;5127715;27;24460;-73
2022/03/18 04:18:04;;;;;;;17.10;15.30;;;;;;;4.90;100.00;97469.03;5118635;27;24505;-73
2022/03/18 04:20:33;;;;;;;17.52;14.90;;;;;;;4.87;100.00;97471.66;5125855;27;24514;-73
2022/03/18 04:23:00;;;;;;;18.02;16.13;;;;;;;5.01;100.00;97476.59;5114113;27;24460;-73
2022/03/18 04:25:27;;;;;;;17.92;15.68;;;;;;;4.92;100.00;97472.44;5115689;27;24473;-72
2022/03/18 04:27:53;;;;;;;16.90;15.15;;;;;;;4.86;100.00;97480.22;5117912;27;25027;-73
2022/03/18 04:30:20;;;;;;;18.95;15.38;;;;;;;4.97;100.00;97480.94;5116373;27;24441;-73
2022/03/18 04:32:46;;;;;;;20.45;16.02;;;;;;;5.01;100.00;97487.72;5133595;27;24439;-73
2022/03/18 04:35:13;;;;;;;17.42;15.70;;;;;;;4.89;100.00;97487.88;5132775;27;24430;-73
2022/03/18 04:37:40;;;;;;;16.75;14.90;;;;;;;4.85;100.00;97499.88;5119826;27;24433;-73
2022/03/18 04:40:10;;;;;;;18.45;16.63;;;;;;;4.84;100.00;97494.78;5116283;27;24433;-73
2022/03/18 04:42:36;;;;;;;16.73;14.88;;;;;;;4.90;100.00;97493.88;5113029;28;24430;-73
2022/03/18 04:45:03;;;;;;;16.88;15.07;;;;;;;4.80;100.00;97496.53;5115181;27;24468;-73
2022/03/18 04:47:30;;;;;;;18.98;15.52;;;;;;;4.72;100.00;97497.50;5122433;27;24428;-73
2022/03/18 04:49:57;;;;;;;17.83;15.32;;;;;;;4.93;100.00;97499.81;5129021;27;25102;-73
2022/03/18 04:52:23;;;;;;;16.98;15.27;;;;;;;4.85;100.00;97499.88;5098305;27;24495;-73
2022/03/18 04:54:50;;;;;;;21.27;17.10;;;;;;;4.96;100.00;97510.03;5122121;27;24989;-73
2022/03/18 04:57:18;;;;;;;18.15;16.25;;;;;;;4.77;100.00;97508.56;5122986;27;24977;-73
2022/03/18 04:59:45;;;;;;;16.93;14.73;;;;;;;4.88;100.00;97513.56;5118526;27;24463;-73
2022/03/18 05:02:12;;;;;;;21.42;15.05;;;;;;;4.80;100.00;97521.38;5114588;27;24434;-73
2022/03/18 05:04:39;;;;;;;20.10;15.27;;;;;;;4.71;100.00;97517.19;5128028;27;24982;-73
2022/03/18 05:07:06;;;;;;;16.90;15.23;;;;;;;4.83;100.00;97517.03;5128632;27;24433;-73
2022/03/18 05:09:32;;;;;;;15.20;13.60;;;;;;;4.89;100.00;97523.81;5127692;27;24488;-73
2022/03/18 05:11:59;;;;;;;16.98;14.98;;;;;;;4.85;100.00;97523.00;5126120;27;24488;-73
2022/03/18 05:14:27;;;;;;;17.50;15.63;;;;;;;4.72;100.00;97523.19;5118293;27;24440;-73
2022/03/18 05:16:53;;;;;;;17.92;14.38;;;;;;;4.58;100.00;97531.03;5118970;27;24441;-73
2022/03/18 05:19:20;;;;;;;17.20;15.57;;;;;;;4.97;100.00;97533.97;5112554;28;24417;-73
2022/03/18 05:21:46;;;;;;;17.92;16.23;;;;;;;4.84;100.00;97539.28;5113427;27;24798;-73
2022/03/18 05:24:12;;;;;;;18.13;15.63;;;;;;;4.77;100.00;97539.38;5119417;27;25030;-73
2022/03/18 05:26:40;;;;;;;18.42;15.55;;;;;;;4.79;100.00;97540.22;5132388;27;24432;-73
2022/03/18 05:29:06;;;;;;;20.38;16.02;;;;;;;4.90;100.00;97548.63;5132053;27;24548;-72
2022/03/18 05:31:35;;;;;;;17.40;15.45;;;;;;;4.78;100.00;97548.75;5131622;27;24971;-73
2022/03/18 05:34:01;;;;;;;18.85;15.93;;;;;;;4.84;100.00;97552.09;5126777;27;24970;-72
2022/03/18 05:36:28;;;;;;;21.70;17.73;;;;;;;4.81;100.00;97541.88;5112250;27;24475;-72
2022/03/18 05:38:55;;;;;;;18.77;16.83;;;;;;;4.82;100.00;97558.13;5112866;27;25060;-73
2022/03/18 05:41:21;;;;;;;20.00;16.77;;;;;;;4.95;100.00;97551.97;5128247;27;24529;-73
2022/03/18 05:43:48;;;;;;;18.23;16.33;;;;;;;4.81;100.00;97556.44;5116941;27;24514;-73
2022/03/18 05:46:14;;;;;;;18.25;16.27;;;;;;;4.71;100.00;97550.56;5122900;27;24453;-72
2022/03/18 05:48:42;;;;;;;21.05;15.70;;;;;;;4.80;100.00;97552.16;5121640;27;24986;-72
2022/03/18 05:51:08;;;;;;;22.95;17.00;;;;;;;4.79;100.00;97559.03;5132277;27;24439;-72
2022/03/18 05:53:35;;;;;;;17.90;16.00;;;;;;;4.69;100.00;97559.13;5115557;27;24462;-72
2022/03/18 05:58:46;;;;;;;21.73;16.83;;;;;;;4.85;100.00;97563.22;5130768;27;24782;-72
2022/03/18 06:01:12;;;;;;;19.20;17.17;;;;;;;4.80;100.00;97570.97;5117795;27;24476;-73
2022/03/18 06:03:39;;;;;;;19.23;17.25;;;;;;;4.74;100.00;97570.19;5120140;27;24841;-73
2022/03/18 06:06:07;;;;;;;20.27;17.00;;;;;;;4.69;100.00;97579.66;5115599;27;24452;-73
2022/03/18 06:14:01;;;;;;;19.63;17.38;;;;;;;4.95;100.00;97579.38;5100247;27;24482;-73
2022/03/18 06:16:28;;;;;;;20.52;17.30;;;;;;;4.64;100.00;97579.72;5102785;28;24426;-74
2022/03/18 06:18:54;;;;;;;18.80;16.83;;;;;;;4.69;100.00;97588.22;5122073;27;24433;-73
2022/03/18 06:21:23;;;;;;;21.08;18.27;;;;;;;4.80;100.00;97580.41;5128904;27;24469;-72
2022/03/18 06:23:49;;;;;;;20.70;18.17;;;;;;;4.77;100.00;97580.44;5112509;28;24533;-75
2022/03/18 06:26:16;;;;;;;21.83;17.20;;;;;;;4.79;100.00;97592.41;5109889;28;24498;-76
2022/03/18 06:28:42;;;;;;;20.13;17.92;;;;;;;4.72;100.00;97590.75;5111052;28;24425;-75
2022/03/18 06:31:09;;;;;;;21.90;17.73;;;;;;;4.77;100.00;97591.53;5110364;28;24436;-75
2022/03/18 06:33:41;;;;;;;18.52;16.85;;;;;;;4.85;100.00;97587.19;5110206;28;24469;-76
2022/03/18 06:36:08;;;;;;;19.98;17.77;;;;;;;4.76;100.00;97596.72;5110463;28;24780;-76
2022/03/18 06:38:36;;;;;;;19.95;17.95;;;;;;;4.93;100.00;97596.50;5110907;28;24977;-75
2022/03/18 06:41:02;;;;;;;20.70;18.17;;;;;;;5.08;100.00;97599.78;5110282;28;24478;-75
2022/03/18 06:43:29;;;;;;;20.40;18.25;;;;;;;4.88;100.00;97604.28;5110168;28;24417;-75
2022/03/18 06:45:55;;;;;;;20.00;17.90;;;;;;;4.79;100.00;97606.94;5110330;28;25008;-75
2022/03/18 06:48:22;;;;;;;21.40;18.90;;;;;;;4.75;100.00;97608.69;5110980;28;24409;-75
2022/03/18 06:50:49;;;;;;;20.97;18.70;;;;;;;4.79;100.00;97612.94;5110767;28;24487;-75
2022/03/18 06:53:15;;;;;;;21.65;19.05;;;;;;;5.10;100.00;97608.28;5110916;28;24517;-75
2022/03/18 06:55:43;;;;;;;22.45;20.20;;;;;;;4.97;100.00;97621.28;5110876;28;24425;-76
2022/03/18 06:58:10;;;;;;;22.35;20.05;;;;;;;4.82;100.00;97610.34;5110389;28;24547;-76
2022/03/18 07:00:37;;;;;;;27.05;20.10;;;;;;;4.82;100.00;97622.28;5110807;28;24490;-70
2022/03/18 07:03:04;;;;;;;23.73;20.08;;;;;;;4.71;100.00;97612.16;5110932;28;24829;-72
2022/03/18 07:05:32;;;;;;;22.70;20.30;;;;;;;4.87;100.00;97617.13;5110765;28;24442;-71
2022/03/18 07:07:58;;;;;;;23.17;19.17;;;;;;;4.74;100.00;97621.53;5110835;28;24471;-72
2022/03/18 07:10:25;;;;;;;21.00;18.90;;;;;;;5.05;100.00;97634.91;5110774;28;24875;-71
2022/03/18 07:12:52;;;;;;;19.73;17.73;;;;;;;4.80;100.00;97629.19;5110683;28;24970;-71
2022/03/18 07:15:19;;;;;;;22.80;19.42;;;;;;;4.77;100.00;97631.78;5110736;28;24414;-71
2022/03/18 07:17:59;;;;;;;22.42;19.77;;;;;;;4.76;100.00;97627.50;5111012;28;24422;-72
2022/03/18 07:20:26;;;;;;;23.10;18.85;;;;;;;4.84;100.00;97638.53;5110688;28;24775;-71
2022/03/18 07:23:03;;;;;;;21.38;19.17;;;;;;;4.91;100.00;97639.34;5110684;28;24471;-70
2022/03/18 07:25:30;;;;;;;22.77;20.35;;;;;;;4.93;100.00;97633.34;5110329;28;24452;-72
2022/03/18 07:27:58;;;;;;;21.33;19.10;;;;;;;4.85;100.00;97628.25;5108694;28;24430;-71
2022/03/18 07:30:24;;;;;;;24.58;20.30;;;;;;;4.79;100.00;97625.75;5109968;28;24425;-71
2022/03/18 07:32:51;;;;;;;23.98;19.63;;;;;;;4.97;100.00;97629.88;5110337;28;24409;-72
2022/03/18 07:35:18;;;;;;;22.48;20.08;;;;;;;5.11;100.00;97627.13;5113783;28;24421;-72
2022/03/18 07:37:46;;;;;;;22.80;20.40;;;;;;;5.00;100.00;97634.94;5114428;28;24417;-72
2022/03/18 07:40:12;;;;;;;26.10;20.85;;;;;;;5.07;100.00;97641.72;5114374;28;24478;-72
2022/03/18 07:42:47;;;;;;;23.27;20.83;;;;;;;5.00;100.00;97640.06;5114506;28;24421;-73
2022/03/18 07:45:18;;;;;;;24.83;21.77;;;;;;;5.02;100.00;97642.66;5114109;28;24444;-72
2022/03/18 07:47:45;;;;;;;24.13;21.60;;;;;;;5.17;100.00;97645.03;5114318;28;24966;-72
2022/03/18 07:50:12;;;;;;;27.88;21.90;;;;;;;5.01;100.00;97641.81;5113775;28;24418;-71
2022/03/18 07:52:38;;;;;;;26.13;21.80;;;;;;;5.01;100.00;97643.53;5114366;28;24425;-71
2022/03/18 07:55:05;;;;;;;25.30;22.23;;;;;;;5.17;100.00;97644.19;5114169;28;24422;-72
2022/03/18 07:57:32;;;;;;;24.77;21.92;;;;;;;4.99;100.00;97655.50;5114360;28;24462;-71
2022/03/18 07:59:58;;;;;;;24.55;22.10;;;;;;;5.12;100.00;97651.09;5113913;28;24429;-73
2022/03/18 08:02:26;;;;;;;26.58;23.95;;;;;;;5.10;100.00;97649.38;5114307;28;24425;-72
2022/03/18 08:04:52;;;;;;;26.50;23.42;;;;;;;5.20;100.00;97657.00;5113635;28;24414;-72
2022/03/18 08:07:20;;;;;;;27.58;24.02;;;;;;;5.19;100.00;97657.84;5113661;28;24474;-73
2022/03/18 08:09:46;;;;;;;26.67;23.85;;;;;;;5.23;100.00;97656.97;5113782;28;24424;-72
2022/03/18 08:12:14;;;;;;;29.10;24.17;;;;;;;5.26;100.00;97662.91;5113606;28;24569;-73
2022/03/18 08:14:40;;;;;;;25.23;22.67;;;;;;;5.38;100.00;97661.06;5113900;28;24825;-73
2022/03/18 08:17:07;;;;;;;26.33;23.50;;;;;;;5.30;100.00;97664.59;5113881;28;24917;-72
2022/03/18 08:19:35;;;;;;;26.45;23.70;;;;;;;5.18;100.00;97674.13;5113604;28;24512;-72
2022/03/18 08:22:04;;;;;;;29.67;24.48;;;;;;;5.33;100.00;97682.50;5113450;28;24425;-72
2022/03/18 08:24:30;;;;;;;29.95;23.95;;;;;;;5.40;100.00;97682.47;5113453;28;24421;-71
2022/03/18 08:26:57;;;;;;;28.35;22.92;;;;;;;5.34;100.00;97680.81;5113383;28;24807;-72
2022/03/18 08:29:23;;;;;;;27.02;23.42;;;;;;;5.28;100.00;97680.88;5113464;28;24788;-71
2022/03/18 08:31:50;;;;;;;26.67;23.75;;;;;;;5.34;100.00;97680.81;5113083;28;24443;-72
2022/03/18 08:34:16;;;;;;;27.20;23.88;;;;;;;5.53;100.00;97677.16;5113365;28;24429;-72
2022/03/18 08:36:44;;;;;;;29.95;24.77;;;;;;;5.42;100.00;97681.59;5111796;28;25004;-70
2022/03/18 08:39:10;;;;;;;29.02;25.00;;;;;;;5.59;100.00;97689.91;5112749;28;24448;-72
2022/03/18 08:41:37;;;;;;;28.58;25.65;;;;;;;5.66;100.00;97684.72;5112371;28;25031;-72
2022/03/18 08:44:04;;;;;;;28.75;25.58;;;;;;;5.71;100.00;97683.78;5112057;28;24429;-71
2022/03/18 08:46:31;;;;;;;28.63;24.25;;;;;;;5.59;100.00;97679.63;5112268;28;24532;-71
2022/03/18 08:48:58;;;;;;;28.80;24.77;;;;;;;5.71;100.00;97682.91;5112781;28;24516;-71
2022/03/18 08:51:24;;;;;;;30.20;25.40;;;;;;;5.71;100.00;97680.34;5113177;28;24433;-71
2022/03/18 08:53:52;;;;;;;31.42;25.73;;;;;;;5.69;100.00;97687.25;5113187;28;24428;-72
2022/03/18 08:56:18;;;;;;;29.80;26.37;;;;;;;5.67;100.00;97691.53;5111766;28;24833;-72
2022/03/18 08:58:45;;;;;;;31.93;26.20;;;;;;;5.55;100.00;97690.81;5111353;28;24436;-72
2022/03/18 09:01:11;;;;;;;30.70;24.15;;;;;;;5.63;100.00;97698.44;5108851;28;24433;-73
2022/03/18 09:03:38;;;;;;;29.05;24.38;;;;;;;5.82;100.00;97694.78;5121168;28;24417;-72
2022/03/18 09:06:05;;;;;;;29.40;26.05;;;;;;;5.97;100.00;97696.34;5125577;28;24449;-71
2022/03/18 09:08:31;;;;;;;34.20;25.83;;;;;;;5.94;100.00;97696.38;5119029;28;24517;-73
2022/03/18 09:10:59;;;;;;;31.48;26.35;;;;;;;5.98;100.00;97700.59;5119480;28;24429;-72
2022/03/18 09:13:26;;;;;;;32.53;26.67;;;;;;;6.01;100.00;97707.44;5113353;28;24433;-73
2022/03/18 09:15:52;;;;;;;34.17;27.58;;;;;;;5.97;100.00;97709.19;5112832;28;24445;-73
2022/03/18 09:18:19;;;;;;;32.00;26.85;;;;;;;6.13;100.00;97711.56;5112481;28;24436;-72
2022/03/18 09:20:45;;;;;;;33.88;28.60;;;;;;;6.08;100.00;97716.75;5111326;28;24982;-72
2022/03/18 09:23:12;;;;;;;38.92;27.10;;;;;;;6.15;100.00;97718.34;5111954;28;24425;-71
2022/03/18 09:25:38;;;;;;;31.90;27.00;;;;;;;6.25;100.00;97708.78;5111976;28;24819;-71
2022/03/18 09:28:06;;;;;;;36.58;29.88;;;;;;;6.20;100.00;97714.00;5111314;28;24797;-71
2022/03/18 09:30:33;;;;;;;31.08;26.92;;;;;;;5.94;100.00;97723.81;5110976;28;24430;-71
2022/03/18 09:33:01;;;;;;;37.25;27.15;;;;;;;6.04;100.00;97721.09;5111127;28;24425;-70
2022/03/18 09:35:28;;;;;;;28.10;25.13;;;;;;;6.27;100.00;97727.66;5111097;28;24438;-70
2022/03/18 09:37:55;;;;;;;36.75;25.42;;;;;;;6.19;100.00;97732.91;5111423;28;24813;-71
2022/03/18 09:40:21;;;;;;;32.72;24.98;;;;;;;6.20;100.00;97728.59;5110550;28;24441;-70
2022/03/18 09:42:59;;;;;;;30.73;23.98;;;;;;;6.22;100.00;97732.00;5110449;28;24849;-71
2022/03/18 09:45:30;;;;;;;28.73;24.23;;;;;;;6.19;100.00;97732.03;5110924;28;24977;-71
2022/03/18 09:47:58;;;;;;;27.42;23.10;;;;;;;6.29;100.00;97731.88;5108859;28;24494;-71
2022/03/18 09:50:24;;;;;;;26.35;23.40;;;;;;;6.46;100.00;97730.81;5107066;28;24495;-71
2022/03/18 09:52:51;;;;;;;31.40;24.53;;;;;;;6.42;100.00;97731.72;5111527;28;24413;-70
2022/03/18 09:55:18;;;;;;;31.23;25.23;;;;;;;6.43;100.00;97730.84;5110161;28;24797;-71
2022/03/18 09:57:44;;;;;;;30.83;24.65;;;;;;;6.46;100.00;97726.50;5109111;28;24437;-71
2022/03/18 10:00:12;;;;;;;29.42;25.52;;;;;;;6.45;100.00;97729.94;5109519;28;24434;-71
2022/03/18 10:02:40;;;;;;;29.53;25.43;;;;;;;6.45;100.00;97735.09;5110067;28;24530;-71
2022/03/18 10:05:11;;;;;;;29.23;25.63;;;;;;;6.43;100.00;97733.41;5109530;28;24434;-70
2022/03/18 10:07:38;;;;;;;31.20;27.40;;;;;;;6.58;100.00;97735.75;5109455;28;24449;-70
2022/03/18 10:10:14;;;;;;;30.45;26.48;;;;;;;6.51;100.00;97735.00;5108704;28;24841;-70
2022/03/18 10:12:42;;;;;;;31.88;26.02;;;;;;;6.66;100.00;97736.47;5107638;28;24437;-70
2022/03/18 10:15:11;;;;;;;31.65;26.30;;;;;;;6.46;100.00;97731.66;5111005;28;24509;-70
2022/03/18 10:17:41;;;;;;;33.03;26.30;;;;;;;6.72;100.00;97741.53;5110439;28;24491;-71
2022/03/18 10:20:08;;;;;;;29.50;24.90;;;;;;;6.82;100.00;97736.22;5110342;28;24513;-71
2022/03/18 10:22:36;;;;;;;35.50;26.70;;;;;;;6.52;100.00;97740.97;5110655;28;24964;-71
2022/03/18 10:25:04;;;;;;;29.67;24.17;;;;;;;6.72;100.00;97743.25;5086566;27;24407;-71
2022/03/18 10:27:32;;;;;;;45.42;25.80;;;;;;;6.61;100.00;97738.28;5030046;28;24440;-71
2022/03/18 10:29:59;;;;;;;34.45;26.73;;;;;;;6.76;100.00;97737.19;5029474;28;24424;-70
2022/03/18 10:32:27;;;;;;;35.15;26.17;;;;;;;6.91;100.00;97733.50;5030258;28;24428;-71
2022/03/18 10:37:42;;;;;;;35.50;24.97;;;;;;;6.77;100.00;97734.56;5030104;28;24574;-70
2022/03/18 10:40:11;;;;;;;29.55;26.38;;;;;;;6.97;100.00;97741.13;5029854;28;24547;-71
2022/03/18 10:42:37;;;;;;;35.35;27.02;;;;;;;7.10;100.00;97734.88;5030531;28;24485;-71
2022/03/18 10:45:06;;;;;;;34.97;28.08;;;;;;;7.05;100.00;97730.72;5030233;28;24838;-71
2022/03/18 10:47:35;;;;;;;30.67;27.33;;;;;;;7.12;100.00;97729.69;5030393;28;24581;-75
2022/03/18 10:50:24;;;;;;;38.42;28.00;;;;;;;7.60;100.00;97720.22;5030176;28;25055;-75
2022/03/18 10:53:08;;;;;;;32.72;28.23;;;;;;;7.56;100.00;97731.44;5030262;28;24457;-75
2022/03/18 10:55:37;;;;;;;36.40;28.60;;;;;;;7.61;100.00;97721.91;5040108;28;24498;-75
2022/03/18 10:58:08;;;;;;;36.00;27.95;;;;;;;7.78;100.00;97728.44;5050390;28;24430;-75
2022/03/18 11:00:36;;;;;;;40.13;31.33;;;;;;;8.04;100.00;97731.31;5050032;28;24435;-75
2022/03/18 11:03:04;;;;;;;35.33;30.13;;;;;;;7.97;100.00;97729.75;5050196;28;24418;-75
2022/03/18 11:05:33;;;;;;;36.67;31.02;;;;;;;8.38;100.00;97722.88;5049577;28;24875;-74
2022/03/18 11:08:01;;;;;;;39.25;32.13;;;;;;;8.40;100.00;97734.88;5047341;28;24450;-75
2022/03/18 11:13:15;;;;;;;35.20;29.40;;;;;;;8.24;100.00;97736.06;5053945;28;24422;-75
2022/03/18 11:15:44;;;;;;;40.42;30.83;;;;;;;8.35;100.00;97734.09;5053513;28;24874;-75
2022/03/18 11:18:11;;;;;;;37.20;29.45;;;;;;;8.24;100.00;97730.91;5054159;28;24418;-75
2022/03/18 11:20:42;;;;;;;42.42;30.75;;;;;;;8.28;100.00;97744.59;5053398;28;24428;-76
2022/03/18 11:23:15;;;;;;;37.22;29.50;;;;;;;8.08;100.00;97742.44;5053822;28;24527;-74
2022/03/18 11:25:42;;;;;;;35.88;29.90;;;;;;;8.04;100.00;97740.81;5053836;28;24549;-75
2022/03/18 11:28:14;;;;;;;38.88;32.10;;;;;;;8.00;100.00;97735.69;5053278;28;24550;-75
2022/03/18 11:30:41;;;;;;;39.67;30.43;;;;;;;8.10;100.00;97738.09;5053536;28;24844;-75
2022/03/18 11:33:23;;;;;;;38.92;31.20;;;;;;;8.08;100.00;97743.28;5053476;28;24430;-75
2022/03/18 11:36:10;;;;;;;42.07;32.07;;;;;;;8.10;100.00;97735.53;5053768;28;24427;-75
2022/03/18 11:39:02;;;;;;;38.60;32.15;;;;;;;8.25;100.00;97738.59;5052837;28;25006;-75
2022/03/18 11:41:50;;;;;;;43.85;32.83;;;;;;;8.27;100.00;97736.00;5053480;28;24430;-75